Time;durP1;ratioP1;P1;durP2;ratioP2;P2;SDS_P1;SDS_P2;PMS_P1;PMS_P2;Temp;Humidity;BMP_temperature;BMP_pressure;BME280_temperature;BME280_humidity;BME280_pressure;Samples;Min_cycle;Max_cycle;Signal;HPM_P1;HPM_P2
2022/01/13 00:00:06;;;;;;;74.70;24.80;;;-0.50;99.90;;;-1.62;100.00;99892.34;5100914;27;20497;-69
2022/01/13 00:02:36;;;;;;;83.85;25.40;;;-0.40;99.90;;;-1.56;100.00;99890.94;5077866;28;20560;-67
2022/01/13 00:05:05;;;;;;;78.38;23.15;;;-0.40;99.90;;;-1.50;100.00;99886.09;5081430;28;20130;-66
2022/01/13 00:07:33;;;;;;;83.78;26.38;;;-0.30;99.90;;;-1.48;100.00;99887.03;5072400;28;20072;-67
2022/01/13 00:10:00;;;;;;;73.82;22.35;;;-0.30;99.90;;;-1.47;100.00;99886.22;5077568;28;20146;-68
2022/01/13 00:12:33;;;;;;;48.03;18.13;;;-0.20;99.90;;;-1.42;100.00;99891.50;5080037;28;20044;-69
2022/01/13 00:15:21;;;;;;;179.13;27.40;;;-0.10;99.90;;;-1.46;100.00;99892.19;5076173;28;20139;-67
2022/01/13 00:25:55;;;;;;;107.93;16.00;;;0.00;99.90;;;-1.15;100.00;99896.03;5080406;28;20127;-67
2022/01/13 00:28:24;;;;;;;109.70;19.83;;;0.00;99.90;;;-1.33;100.00;99899.53;5081682;28;20158;-68
2022/01/13 00:30:54;;;;;;;213.90;22.40;;;0.00;99.90;;;-1.29;100.00;99905.66;5081781;28;20823;-68
2022/01/13 00:33:24;;;;;;;247.88;27.75;;;0.00;99.90;;;-1.27;100.00;99910.00;5075426;28;20126;-67
2022/01/13 00:35:58;;;;;;;106.32;17.17;;;0.00;99.90;;;-1.21;100.00;99913.59;5076157;28;20056;-68
2022/01/13 00:38:27;;;;;;;118.03;17.25;;;0.10;99.90;;;-1.17;100.00;99901.06;5084752;28;20135;-67
2022/01/13 00:40:54;;;;;;;286.67;26.17;;;0.10;99.90;;;-1.09;100.00;99901.38;5082449;28;20124;-68
2022/01/13 00:43:22;;;;;;;286.98;24.25;;;0.10;99.90;;;-1.21;100.00;99901.72;5081696;28;20473;-67
2022/01/13 00:45:49;;;;;;;252.23;25.60;;;0.10;99.90;;;-1.23;100.00;99905.03;5076504;28;20546;-67
2022/01/13 00:48:17;;;;;;;143.13;19.30;;;0.10;99.90;;;-1.17;100.00;99908.69;5079531;28;20071;-67
2022/01/13 00:50:44;;;;;;;182.55;18.88;;;0.10;99.90;;;-1.07;100.00;99912.53;5078580;28;20155;-68
2022/01/13 00:53:12;;;;;;;173.00;19.83;;;0.20;99.90;;;-1.16;100.00;99915.56;5077297;28;20044;-67
2022/01/13 00:58:13;;;;;;;374.75;29.08;;;0.20;99.90;;;-1.30;100.00;99911.53;5078969;28;20131;-68
2022/01/13 01:00:41;;;;;;;123.28;18.05;;;0.10;99.90;;;-1.21;100.00;99904.28;5076148;28;20065;-67
2022/01/13 01:03:09;;;;;;;121.75;19.45;;;0.10;99.90;;;-1.11;100.00;99905.56;5074851;28;20079;-68
2022/01/13 01:05:37;;;;;;;163.00;19.10;;;0.10;99.90;;;-1.02;100.00;99905.94;5079082;28;20041;-68
2022/01/13 01:08:06;;;;;;;166.10;19.23;;;0.20;99.90;;;-0.92;100.00;99912.25;5080232;28;20044;-67
2022/01/13 01:10:33;;;;;;;78.93;13.70;;;0.20;99.90;;;-0.99;100.00;99921.34;5072609;28;20076;-68
2022/01/13 01:13:10;;;;;;;209.60;19.60;;;0.20;99.90;;;-1.10;100.00;99925.97;5071581;28;20393;-67
2022/01/13 01:15:41;;;;;;;66.22;13.07;;;0.20;99.90;;;-0.98;100.00;99928.19;5067822;28;20044;-67
2022/01/13 01:18:20;;;;;;;76.53;14.60;;;0.20;99.90;;;-0.94;100.00;99922.38;5068039;28;20558;-68
2022/01/13 01:21:02;;;;;;;179.48;18.05;;;0.30;99.90;;;-0.87;100.00;99928.63;5068069;28;20044;-67
2022/01/13 01:23:36;;;;;;;220.50;21.23;;;0.30;99.90;;;-0.95;100.00;99933.41;5069272;28;20070;-67
2022/01/13 01:26:09;;;;;;;136.60;17.70;;;0.30;99.90;;;-1.03;100.00;99936.44;5061325;28;20135;-67
2022/01/13 01:28:44;;;;;;;239.27;20.80;;;0.20;99.90;;;-1.18;100.00;99929.03;5069745;28;20047;-68
2022/01/13 01:31:13;;;;;;;398.27;30.80;;;0.10;99.90;;;-1.37;100.00;99927.38;5067494;28;20072;-68
2022/01/13 01:33:47;;;;;;;322.65;29.65;;;0.00;99.90;;;-1.34;100.00;99927.53;5067845;28;20044;-68
2022/01/13 01:36:15;;;;;;;325.65;25.15;;;-0.10;99.90;;;-1.31;100.00;99927.66;5067525;28;20076;-67
2022/01/13 01:38:47;;;;;;;245.68;21.75;;;0.00;99.90;;;-1.44;100.00;99931.31;5071492;28;20134;-67
2022/01/13 01:41:16;;;;;;;268.60;22.38;;;-0.10;99.90;;;-1.40;100.00;99920.47;5066871;28;20131;-68
2022/01/13 01:43:43;;;;;;;314.27;27.10;;;-0.10;99.90;;;-1.48;100.00;99927.78;5062697;28;20744;-68
2022/01/13 01:46:10;;;;;;;312.15;27.10;;;-0.20;99.90;;;-1.49;100.00;99925.19;5074093;28;20043;-68
2022/01/13 01:48:37;;;;;;;288.40;23.65;;;-0.20;99.90;;;-1.52;100.00;99925.91;5066726;28;20079;-68
2022/01/13 01:51:04;;;;;;;186.90;20.73;;;-0.30;99.90;;;-1.54;100.00;99924.97;5066737;28;20492;-67
2022/01/13 01:53:31;;;;;;;281.33;23.55;;;-0.20;99.90;;;-1.59;100.00;99917.97;5070201;28;20048;-69
2022/01/13 01:55:58;;;;;;;310.38;23.02;;;-0.20;99.90;;;-1.52;100.00;99914.88;5057845;28;20076;-68
2022/01/13 01:58:27;;;;;;;208.57;21.25;;;-0.20;99.90;;;-1.52;100.00;99915.72;5064877;28;20135;-68
2022/01/13 02:00:55;;;;;;;311.38;23.95;;;-0.20;99.90;;;-1.45;100.00;99910.91;5061587;28;20603;-68
2022/01/13 02:03:24;;;;;;;353.67;25.77;;;-0.20;99.90;;;-1.48;100.00;99909.97;5066795;28;20044;-68
2022/01/13 02:05:52;;;;;;;186.25;24.00;;;-0.20;99.90;;;-1.55;100.00;99913.06;5066548;28;20088;-68
2022/01/13 02:08:19;;;;;;;297.10;24.00;;;-0.20;99.90;;;-1.58;100.00;99914.59;5066352;28;20139;-68
2022/01/13 02:10:46;;;;;;;280.83;26.80;;;-0.20;99.90;;;-1.61;100.00;99911.94;5067001;28;20128;-67
2022/01/13 02:13:19;;;;;;;230.77;21.30;;;-0.30;99.90;;;-1.61;100.00;99915.34;5061746;28;20119;-68
2022/01/13 02:15:59;;;;;;;293.15;29.52;;;-0.20;99.90;;;-1.71;100.00;99921.72;5066191;28;20055;-68
2022/01/13 02:18:30;;;;;;;411.08;30.00;;;-0.30;99.90;;;-1.63;100.00;99916.06;5060956;28;20496;-67
2022/01/13 02:20:59;;;;;;;203.45;22.33;;;-0.30;99.90;;;-1.50;100.00;99916.66;5065358;28;20136;-67
2022/01/13 02:23:38;;;;;;;204.75;23.67;;;-0.30;99.90;;;-1.46;100.00;99915.09;5065676;28;20081;-68
2022/01/13 02:26:09;;;;;;;335.23;28.63;;;-0.20;99.90;;;-1.48;100.00;99916.75;5067949;28;20079;-67
2022/01/13 02:28:38;;;;;;;246.38;24.85;;;-0.20;99.90;;;-1.46;100.00;99915.09;5066704;28;20481;-68
2022/01/13 02:31:05;;;;;;;91.10;17.60;;;-0.20;99.90;;;-1.38;100.00;99906.13;5062690;28;20139;-68
2022/01/13 02:33:34;;;;;;;171.15;22.15;;;-0.10;99.90;;;-1.37;100.00;99902.78;5064991;28;20457;-68
2022/01/13 02:36:03;;;;;;;117.63;17.30;;;0.00;99.90;;;-1.29;100.00;99898.00;5069723;28;20052;-67
2022/01/13 02:38:30;;;;;;;103.82;17.30;;;0.00;99.90;;;-1.41;100.00;99902.59;5062269;28;20336;-67
2022/01/13 02:41:00;;;;;;;188.65;18.30;;;0.00;99.90;;;-1.47;100.00;99908.28;5067237;28;20445;-68
2022/01/13 02:43:30;;;;;;;325.63;28.50;;;-0.10;99.90;;;-1.57;100.00;99904.47;5067292;28;20171;-67
2022/01/13 02:48:44;;;;;;;226.85;25.77;;;-0.20;99.90;;;-1.50;100.00;99898.84;5062023;28;20049;-67
2022/01/13 02:51:11;;;;;;;89.85;18.08;;;-0.30;99.90;;;-1.39;100.00;99893.31;5066431;28;20532;-67
2022/01/13 02:53:38;;;;;;;90.70;15.68;;;-0.20;99.90;;;-1.39;100.00;99889.13;5067073;28;20055;-67
2022/01/13 02:56:05;;;;;;;249.95;23.33;;;-0.10;99.90;;;-1.50;100.00;99891.19;5067025;28;20147;-67
2022/01/13 02:58:34;;;;;;;398.73;28.98;;;0.00;99.90;;;-1.43;100.00;99889.78;5065946;28;20139;-67
2022/01/13 03:01:03;;;;;;;372.92;33.90;;;-0.10;99.90;;;-1.43;100.00;99884.69;5064758;28;20131;-67
2022/01/13 03:03:33;;;;;;;151.10;19.27;;;-0.10;99.90;;;-1.34;100.00;99882.53;5063793;28;20165;-67
2022/01/13 03:06:13;;;;;;;156.60;20.27;;;0.00;99.90;;;-1.29;100.00;99882.72;5066225;28;20080;-68
2022/01/13 03:08:45;;;;;;;521.67;35.83;;;0.00;99.90;;;-1.33;100.00;99885.94;5066305;28;20481;-67
2022/01/13 03:11:15;;;;;;;525.15;39.05;;;0.00;99.90;;;-1.43;100.00;99889.78;5065953;28;20055;-68
2022/01/13 03:13:42;;;;;;;731.55;50.92;;;-0.10;99.90;;;-1.54;100.00;99894.41;5067511;28;20120;-67
2022/01/13 03:16:13;;;;;;;536.83;38.55;;;-0.10;99.90;;;-1.53;100.00;99895.28;5066426;28;20384;-67
2022/01/13 03:18:40;;;;;;;545.58;39.60;;;-0.20;99.90;;;-1.55;100.00;99892.69;5067811;28;20491;-68
2022/01/13 03:21:08;;;;;;;738.15;60.15;;;-0.20;99.90;;;-1.56;100.00;99897.72;5065953;28;20123;-67
2022/01/13 03:23:36;;;;;;;437.92;36.78;;;-0.20;99.90;;;-1.47;100.00;99893.88;5063072;28;20062;-67
2022/01/13 03:26:04;;;;;;;199.82;25.38;;;-0.20;99.90;;;-1.42;100.00;99893.19;5069528;28;20051;-67
2022/01/13 03:28:38;;;;;;;231.10;27.20;;;-0.10;99.90;;;-1.24;100.00;99888.88;5066673;28;20136;-68
2022/01/13 03:31:07;;;;;;;545.35;42.08;;;0.00;99.90;;;-1.34;100.00;99887.63;5066613;28;20127;-67
2022/01/13 03:33:35;;;;;;;629.05;45.28;;;0.00;99.90;;;-1.42;100.00;99891.50;5068279;28;20109;-68
2022/01/13 03:36:02;;;;;;;124.25;18.95;;;0.00;99.90;;;-1.22;100.00;99894.03;5070317;28;20048;-67
2022/01/13 03:38:31;;;;;;;449.42;34.60;;;0.10;99.90;;;-1.36;100.00;99896.88;5063808;28;20045;-67
2022/01/13 03:40:58;;;;;;;251.45;27.63;;;0.00;99.90;;;-1.34;100.00;99897.81;5057317;28;20143;-68
2022/01/13 03:43:24;;;;;;;147.90;20.85;;;0.00;99.90;;;-1.34;100.00;99897.81;5060868;28;20520;-68
2022/01/13 03:45:52;;;;;;;274.17;25.30;;;0.10;99.90;;;-1.26;100.00;99900.69;5061980;28;20527;-67
2022/01/13 03:48:19;;;;;;;170.18;22.38;;;0.10;99.90;;;-1.30;100.00;99902.25;5070069;28;20055;-68
2022/01/13 03:50:46;;;;;;;390.85;30.55;;;0.00;99.90;;;-1.27;100.00;99902.34;5070025;28;20066;-68
2022/01/13 03:53:28;;;;;;;494.23;40.13;;;0.00;99.90;;;-1.39;100.00;99906.94;5068780;28;20057;-67
2022/01/13 03:56:13;;;;;;;216.00;26.13;;;-0.10;99.90;;;-1.22;100.00;99906.78;5067784;28;20155;-67
2022/01/13 03:59:19;;;;;;;278.60;29.73;;;0.00;99.90;;;-1.17;100.00;99912.94;5061375;28;20056;-67
2022/01/13 04:02:08;;;;;;;254.27;27.30;;;0.00;99.90;;;-1.23;100.00;99917.75;5063154;28;20690;-67
2022/01/13 04:04:46;;;;;;;545.30;40.85;;;0.10;99.90;;;-1.33;100.00;99917.38;5063086;28;20044;-67
2022/01/13 04:07:15;;;;;;;514.53;40.92;;;0.00;99.90;;;-1.33;100.00;99908.88;5064399;28;20427;-67
2022/01/13 04:09:43;;;;;;;415.77;36.15;;;0.00;99.90;;;-1.24;100.00;99906.72;5065919;28;20227;-68
2022/01/13 04:12:13;;;;;;;273.15;26.85;;;0.00;99.90;;;-1.20;100.00;99907.72;5063298;28;20080;-68
2022/01/13 04:14:59;;;;;;;455.20;37.47;;;0.10;99.90;;;-1.23;100.00;99905.03;5066402;28;20576;-68
2022/01/13 04:17:27;;;;;;;488.83;32.03;;;0.10;99.90;;;-1.18;100.00;99901.00;5062041;28;20443;-67
2022/01/13 04:19:55;;;;;;;366.40;30.88;;;0.10;99.90;;;-1.20;100.00;99895.84;5064016;28;21492;-68
2022/01/13 04:22:25;;;;;;;859.03;60.80;;;0.10;99.90;;;-1.37;100.00;99899.34;5064117;28;20045;-67
2022/01/13 04:24:53;;;;;;;419.85;35.90;;;0.00;99.90;;;-1.37;100.00;99900.25;5065270;28;20080;-67
2022/01/13 04:27:29;;;;;;;605.80;43.05;;;0.00;99.90;;;-1.38;100.00;99900.16;5066091;28;20044;-67
2022/01/13 04:32:41;;;;;;;369.25;34.10;;;-0.10;99.90;;;-1.38;100.00;99892.53;5064065;28;20123;-68
2022/01/13 04:35:10;;;;;;;413.88;34.85;;;0.00;99.90;;;-1.28;100.00;99899.72;5064575;28;20049;-68
2022/01/13 04:37:38;;;;;;;427.73;40.75;;;0.10;99.90;;;-1.22;100.00;99892.34;5083033;28;20135;-68
2022/01/13 04:40:09;;;;;;;310.35;29.00;;;0.10;99.90;;;-1.16;100.00;99886.66;5065540;28;20128;-67
2022/01/13 04:42:37;;;;;;;651.22;52.08;;;0.20;99.90;;;-1.24;100.00;99899.06;5066420;28;20044;-67
2022/01/13 04:45:05;;;;;;;478.92;36.53;;;0.10;99.90;;;-1.22;100.00;99901.69;5066583;28;20135;-67
2022/01/13 04:47:32;;;;;;;444.13;39.45;;;0.10;99.90;;;-1.32;100.00;99898.75;5062420;28;20091;-67
2022/01/13 04:49:59;;;;;;;825.75;57.33;;;0.10;99.90;;;-1.29;100.00;99891.22;5069342;28;20139;-67
2022/01/13 04:52:26;;;;;;;377.52;37.42;;;0.10;99.90;;;-1.20;100.00;99893.28;5065763;28;20127;-68
2022/01/13 04:54:53;;;;;;;688.00;56.00;;;0.10;99.90;;;-1.19;100.00;99883.97;5067997;28;20091;-67
2022/01/13 04:57:20;;;;;;;485.25;41.75;;;0.10;99.90;;;-1.16;100.00;99887.53;5063330;28;20123;-68
2022/01/13 04:59:47;;;;;;;780.25;56.00;;;0.10;99.90;;;-1.15;100.00;99885.84;5068016;28;20080;-68
2022/01/13 05:02:16;;;;;;;548.33;41.22;;;0.10;99.90;;;-1.18;100.00;99889.13;5066917;28;20072;-68
2022/01/13 05:04:44;;;;;;;398.92;35.33;;;0.10;99.90;;;-1.24;100.00;99885.47;5070986;28;20044;-68
2022/01/13 05:07:10;;;;;;;500.45;40.17;;;0.20;99.90;;;-1.21;100.00;99876.25;5067521;28;20147;-67
2022/01/13 05:09:37;;;;;;;664.00;56.47;;;0.10;99.90;;;-1.30;100.00;99873.31;5069913;28;20131;-67
2022/01/13 05:12:05;;;;;;;628.17;43.97;;;0.10;99.90;;;-1.30;100.00;99868.22;5066680;28;20131;-67
2022/01/13 05:14:32;;;;;;;642.47;43.53;;;0.10;99.90;;;-1.18;100.00;99868.75;5063790;28;20158;-68
2022/01/13 05:17:12;;;;;;;464.33;36.63;;;0.10;99.90;;;-1.23;100.00;99875.34;5070635;28;20087;-67
2022/01/13 05:19:46;;;;;;;445.52;33.88;;;0.10;99.90;;;-1.10;100.00;99879.25;5071537;28;20044;-67
2022/01/13 05:24:40;;;;;;;422.42;38.10;;;0.20;99.90;;;-1.14;100.00;99875.72;5067635;28;20127;-68
2022/01/13 05:27:08;;;;;;;795.78;50.80;;;0.20;99.90;;;-1.22;100.00;99876.19;5066213;28;20045;-67
2022/01/13 05:29:35;;;;;;;553.92;35.40;;;0.10;99.90;;;-1.14;100.00;99873.16;5069147;28;20087;-67
2022/01/13 05:32:02;;;;;;;786.97;53.53;;;0.10;99.90;;;-1.04;100.00;99883.75;5068826;28;20575;-67
2022/01/13 05:34:29;;;;;;;823.47;48.92;;;0.10;99.90;;;-1.12;100.00;99884.31;5060026;28;20053;-68
2022/01/13 05:37:11;;;;;;;732.58;48.03;;;0.20;99.90;;;-1.15;100.00;99884.16;5071681;28;20044;-67
2022/01/13 05:39:38;;;;;;;1222.57;77.57;;;0.10;99.90;;;-1.33;100.00;99883.38;5068251;28;20462;-68
2022/01/13 05:42:05;;;;;;;1080.22;70.28;;;0.00;99.90;;;-1.36;100.00;99890.91;5065848;28;20049;-67
2022/01/13 05:44:38;;;;;;;897.92;56.08;;;0.00;99.90;;;-1.35;100.00;99896.06;5065999;28;20155;-68
2022/01/13 05:47:08;;;;;;;;;;;0.00;99.90;;;-1.37;100.00;99907.00;5071548;28;20064;-68
2022/01/13 05:49:42;;;;;;;449.33;41.65;;;-0.10;99.90;;;-1.39;100.00;99904.41;5065743;28;19971;-67
2022/01/13 05:52:12;;;;;;;725.30;51.28;;;0.00;99.90;;;-1.36;100.00;99901.97;5066880;28;20060;-67
2022/01/13 05:54:40;;;;;;;539.78;38.45;;;0.00;99.90;;;-1.11;100.00;99896.22;5068257;28;20052;-67
2022/01/13 05:57:07;;;;;;;672.28;45.95;;;0.10;99.90;;;-1.11;100.00;99895.34;5067614;28;20075;-67
2022/01/13 05:59:35;;;;;;;544.38;33.08;;;0.10;99.90;;;-0.99;100.00;99900.09;5067873;28;20139;-68
2022/01/13 06:02:05;;;;;;;131.00;18.33;;;0.20;99.90;;;-0.87;100.00;99893.81;5065575;28;20053;-67
2022/01/13 06:04:33;;;;;;;644.17;44.33;;;0.30;99.90;;;-0.82;100.00;99900.75;5069781;28;20416;-67
2022/01/13 06:07:00;;;;;;;757.33;48.95;;;0.30;99.90;;;-0.90;100.00;99895.34;5062749;28;20174;-67
2022/01/13 06:09:27;;;;;;;212.48;23.52;;;0.30;99.90;;;-1.02;100.00;99890.63;5064071;28;20064;-67
2022/01/13 06:12:01;;;;;;;631.15;41.90;;;0.20;99.90;;;-1.06;100.00;99888.75;5068834;28;20086;-67
2022/01/13 06:14:28;;;;;;;182.55;19.60;;;0.20;99.90;;;-0.92;100.00;99900.38;5065475;28;20147;-67
2022/01/13 06:16:55;;;;;;;306.05;26.42;;;0.30;99.90;;;-0.98;100.00;99896.72;5067218;28;20505;-67
2022/01/13 06:19:23;;;;;;;418.40;33.55;;;0.30;99.90;;;-0.86;100.00;99905.75;5066883;28;20468;-67
2022/01/13 06:21:49;;;;;;;125.97;16.17;;;0.30;99.90;;;-0.78;100.00;99902.63;5066091;28;20429;-67
2022/01/13 06:24:17;;;;;;;151.18;16.05;;;0.30;99.90;;;-0.67;100.00;99896.28;5067433;28;20128;-68
2022/01/13 06:26:44;;;;;;;344.27;34.00;;;0.40;99.90;;;-0.75;100.00;99897.63;5062316;28;20075;-67
2022/01/13 06:29:11;;;;;;;301.20;27.90;;;0.40;99.90;;;-0.85;100.00;99901.50;5069922;28;20037;-68
2022/01/13 06:31:38;;;;;;;445.67;35.05;;;0.40;99.90;;;-0.95;100.00;99901.94;5060859;28;20111;-67
2022/01/13 06:34:05;;;;;;;242.90;23.05;;;0.30;99.90;;;-0.98;100.00;99894.16;5065603;28;20304;-67
2022/01/13 06:36:32;;;;;;;328.83;26.42;;;0.30;99.90;;;-0.92;100.00;99899.50;5066463;28;20110;-67
2022/01/13 06:38:59;;;;;;;58.28;10.55;;;0.30;99.90;;;-0.74;100.00;99904.50;5069654;28;20600;-67
2022/01/13 06:41:26;;;;;;;327.27;25.98;;;0.40;99.90;;;-0.69;100.00;99900.44;5065023;28;20064;-67
2022/01/13 06:43:53;;;;;;;364.65;28.77;;;0.40;99.90;;;-0.75;100.00;99901.06;5072495;28;20131;-67
2022/01/13 06:46:21;;;;;;;288.92;24.23;;;0.50;99.90;;;-0.75;100.00;99905.28;5065567;28;20492;-68
2022/01/13 06:48:49;;;;;;;648.90;51.92;;;0.40;99.90;;;-1.07;100.00;99909.97;5062227;28;20152;-68
2022/01/13 06:51:16;;;;;;;138.32;17.80;;;0.30;99.90;;;-0.82;100.00;99921.16;5064035;28;20413;-67
2022/01/13 06:53:44;;;;;;;195.23;22.77;;;0.40;99.90;;;-1.04;100.00;99912.63;5066208;28;20041;-67
2022/01/13 06:56:11;;;;;;;79.03;15.77;;;0.40;99.90;;;-0.86;100.00;99917.63;5068506;28;20427;-67
2022/01/13 06:58:39;;;;;;;172.30;19.65;;;0.40;99.90;;;-1.03;100.00;99919.47;5064714;28;20076;-67
2022/01/13 07:01:06;;;;;;;155.95;18.63;;;0.30;99.90;;;-1.02;100.00;99921.22;5066392;28;20076;-68
2022/01/13 07:03:37;;;;;;;267.25;24.02;;;0.30;99.90;;;-1.21;100.00;99926.34;5068468;28;20578;-67
2022/01/13 07:06:05;;;;;;;374.15;30.30;;;0.20;99.90;;;-1.31;100.00;99927.66;5068228;28;20421;-68
2022/01/13 07:08:33;;;;;;;270.33;25.25;;;0.10;99.90;;;-1.24;100.00;99931.31;5065562;28;20127;-68
2022/01/13 07:11:03;;;;;;;422.20;25.42;;;0.10;99.90;;;-1.29;100.00;99932.00;5066372;28;20161;-67
2022/01/13 07:13:32;;;;;;;536.85;38.10;;;0.00;99.90;;;-1.35;100.00;99929.19;5067979;28;20119;-68
2022/01/13 07:16:01;;;;;;;447.35;31.70;;;-0.10;99.90;;;-1.36;100.00;99936.78;5067183;28;20067;-68
2022/01/13 07:18:29;;;;;;;721.35;46.90;;;-0.10;99.90;;;-1.44;100.00;99944.06;5067843;28;20049;-68
2022/01/13 07:20:56;;;;;;;495.40;34.58;;;-0.10;99.90;;;-1.43;100.00;99948.38;5067053;28;20131;-67
2022/01/13 07:23:24;;;;;;;205.93;24.30;;;-0.10;99.90;;;-1.33;100.00;99944.53;5047750;28;20495;-67
2022/01/13 07:25:51;;;;;;;210.82;23.15;;;0.00;99.90;;;-1.15;100.00;99935.13;5063030;28;20135;-67
2022/01/13 07:28:18;;;;;;;576.97;39.05;;;0.10;99.90;;;-1.34;100.00;99937.72;5065627;28;20176;-67
2022/01/13 07:30:44;;;;;;;502.95;35.47;;;0.00;99.90;;;-1.38;100.00;99939.25;5057487;28;20079;-68
2022/01/13 07:33:12;;;;;;;519.00;42.05;;;0.00;99.90;;;-1.39;100.00;99942.63;5068581;28;20063;-67
2022/01/13 07:35:38;;;;;;;627.97;41.40;;;0.00;99.90;;;-1.42;100.00;99939.91;5066808;28;20080;-67
2022/01/13 07:38:05;;;;;;;386.83;26.20;;;-0.10;99.90;;;-1.27;100.00;99943.13;5066594;28;20167;-67
2022/01/13 07:40:32;;;;;;;103.15;17.27;;;0.00;99.90;;;-1.07;100.00;99940.56;5067446;28;20078;-67
2022/01/13 07:42:59;;;;;;;271.63;25.17;;;0.20;99.90;;;-1.03;100.00;99937.31;5064632;28;20051;-68
2022/01/13 07:45:26;;;;;;;424.80;31.92;;;0.20;99.90;;;-1.04;100.00;99942.38;5063822;28;20127;-67
2022/01/13 07:47:53;;;;;;;77.40;16.25;;;0.20;99.90;;;-0.89;100.00;99942.97;5065414;28;20041;-67
2022/01/13 07:50:20;;;;;;;66.85;14.35;;;0.30;99.90;;;-0.83;100.00;99940.69;5063384;28;20258;-68
2022/01/13 07:52:47;;;;;;;159.48;19.55;;;0.40;99.90;;;-0.69;100.00;99939.56;5065779;28;20127;-67
2022/01/13 07:55:15;;;;;;;253.48;27.95;;;0.40;99.90;;;-0.82;100.00;99939.00;5064641;28;20140;-67
2022/01/13 07:57:42;;;;;;;381.83;28.63;;;0.40;99.90;;;-0.97;100.00;99945.22;5066884;28;20044;-67
2022/01/13 08:00:11;;;;;;;72.75;17.35;;;0.40;99.90;;;-0.90;100.00;99937.00;5059511;28;20540;-67
2022/01/13 08:02:39;;;;;;;95.78;16.70;;;0.30;99.90;;;-0.87;100.00;99938.81;5063048;28;20416;-68
2022/01/13 08:05:08;;;;;;;149.95;20.95;;;0.40;99.90;;;-1.08;100.00;99939.66;5055359;28;20163;-67
2022/01/13 08:07:35;;;;;;;195.50;24.38;;;0.40;99.90;;;-1.06;100.00;99934.66;5063124;28;20078;-67
2022/01/13 08:10:03;;;;;;;523.38;42.65;;;0.40;99.90;;;-1.19;100.00;99942.56;5064836;28;20244;-68
2022/01/13 08:12:30;;;;;;;613.28;43.30;;;0.30;99.90;;;-1.47;100.00;99941.41;5066789;28;20076;-68
2022/01/13 08:14:57;;;;;;;463.10;36.35;;;0.10;99.90;;;-1.39;100.00;99945.16;5065785;28;20075;-67
2022/01/13 08:20:10;;;;;;;233.60;28.98;;;0.10;99.90;;;-1.12;100.00;99948.00;5060425;28;20139;-68
2022/01/13 08:22:37;;;;;;;247.70;26.88;;;0.30;99.90;;;-1.00;100.00;99945.09;5066511;28;20128;-67
2022/01/13 08:25:09;;;;;;;421.02;35.50;;;0.30;99.90;;;-1.16;100.00;99941.03;5068562;28;20109;-67
2022/01/13 08:27:38;;;;;;;282.80;29.08;;;0.30;99.90;;;-1.03;100.00;99939.84;5067475;28;20044;-67
2022/01/13 08:30:06;;;;;;;359.00;29.58;;;0.30;99.90;;;-1.10;100.00;99941.28;5067153;28;20569;-67
2022/01/13 08:32:33;;;;;;;415.58;34.47;;;0.40;99.90;;;-1.18;100.00;99927.34;5067700;28;20465;-68
2022/01/13 08:35:00;;;;;;;453.35;40.33;;;0.50;99.90;;;-1.20;100.00;99930.66;5064903;28;20144;-68
2022/01/13 08:37:27;;;;;;;675.80;46.65;;;0.40;99.90;;;-1.18;100.00;99924.81;5066270;28;20091;-68
2022/01/13 08:39:55;;;;;;;901.92;60.42;;;0.40;99.90;;;-1.16;100.00;99922.34;5069703;28;20556;-68
2022/01/13 08:42:23;;;;;;;388.95;32.38;;;0.30;99.90;;;-0.94;100.00;99921.53;5063133;28;20041;-67
2022/01/13 08:44:50;;;;;;;237.82;23.13;;;0.30;99.90;;;-0.69;100.00;99916.59;5066336;28;20110;-67
2022/01/13 08:47:17;;;;;;;356.08;40.72;;;0.50;99.90;;;-0.69;100.00;99920.84;5060970;28;20123;-67
2022/01/13 08:49:44;;;;;;;386.45;32.95;;;0.60;99.90;;;-0.46;100.00;99930.28;5064803;28;20484;-67
2022/01/13 08:52:12;;;;;;;348.08;34.30;;;0.70;99.90;;;-0.47;100.00;99917.47;5065085;28;20044;-68
2022/01/13 08:54:41;;;;;;;320.77;30.90;;;0.80;99.90;;;-0.49;100.00;99921.63;5064250;28;20151;-68
2022/01/13 08:57:08;;;;;;;274.25;25.05;;;0.80;99.90;;;-0.48;100.00;99925.91;5066540;28;20726;-68
2022/01/13 08:59:35;;;;;;;348.85;29.75;;;0.80;99.90;;;-0.57;100.00;99920.44;5064591;28;20080;-67
2022/01/13 09:02:02;;;;;;;209.13;25.02;;;0.80;99.90;;;-0.52;100.00;99922.38;5065274;28;20163;-67
2022/01/13 09:04:30;;;;;;;319.73;29.25;;;0.90;99.90;;;-0.66;100.00;99924.41;5064929;28;20044;-68
2022/01/13 09:06:57;;;;;;;320.25;30.83;;;0.90;99.90;;;-0.48;100.00;99933.56;5068461;28;20140;-67
2022/01/13 09:09:24;;;;;;;411.95;36.88;;;0.90;99.90;;;-0.63;100.00;99939.81;5067234;28;20549;-68
2022/01/13 09:11:51;;;;;;;517.47;41.80;;;0.70;99.90;;;-0.68;100.00;99941.31;5071696;28;20552;-67
2022/01/13 09:14:24;;;;;;;478.38;38.42;;;0.70;99.90;;;-0.95;100.00;99932.53;5067341;28;20128;-68
2022/01/13 09:16:52;;;;;;;;;;;0.50;99.90;;;-1.06;100.00;99942.28;5062870;28;20092;-67
2022/01/13 09:19:20;;;;;;;380.20;35.20;;;0.50;99.90;;;-0.93;100.00;99947.09;5068836;28;20353;-67
2022/01/13 09:21:49;;;;;;;481.88;44.22;;;0.60;99.90;;;-0.83;100.00;99947.47;5064020;28;20097;-67
2022/01/13 09:24:18;;;;;;;441.02;35.72;;;0.70;99.90;;;-0.64;100.00;99945.72;5063604;28;20044;-67
2022/01/13 09:26:46;;;;;;;519.40;48.80;;;0.80;99.90;;;-0.57;100.00;99948.50;5064208;28;20091;-67
2022/01/13 09:29:14;;;;;;;346.85;31.90;;;0.80;99.90;;;-0.38;100.00;99942.47;5067958;28;20135;-67
2022/01/13 09:31:43;;;;;;;916.45;57.45;;;0.90;99.90;;;-0.56;100.00;99951.13;5066217;28;20140;-68
2022/01/13 09:34:11;;;;;;;710.58;52.13;;;0.80;99.90;;;-0.55;100.00;99945.19;5065557;28;20049;-68
2022/01/13 09:36:39;;;;;;;433.25;38.67;;;0.90;99.90;;;-0.46;100.00;99947.25;5068838;28;20052;-68
2022/01/13 09:39:09;;;;;;;383.98;30.95;;;1.00;99.90;;;-0.09;100.00;99943.56;5061160;28;20139;-67
2022/01/13 09:41:42;;;;;;;323.85;30.80;;;1.00;99.90;;;-0.21;100.00;99954.19;5066265;28;20131;-67
2022/01/13 09:44:10;;;;;;;299.30;30.27;;;1.10;99.90;;;-0.10;100.00;99942.72;5065109;28;20075;-68
2022/01/13 09:46:37;;;;;;;315.20;29.70;;;1.20;99.90;;;0.03;100.00;99954.25;5063996;28;20076;-68
2022/01/13 09:49:06;;;;;;;149.50;21.88;;;1.30;99.90;;;0.26;100.00;99944.91;5066532;28;20473;-68
2022/01/13 09:51:35;;;;;;;601.90;35.15;;;1.30;99.90;;;0.33;100.00;99935.78;5070740;28;20472;-68
2022/01/13 09:54:04;;;;;;;292.65;32.40;;;1.40;99.90;;;0.24;100.00;99938.00;5063394;28;20177;-68
2022/01/13 09:56:33;;;;;;;593.58;43.15;;;1.40;99.90;;;0.13;100.00;99935.91;5070202;28;20523;-67
2022/01/13 09:59:01;;;;;;;444.17;42.40;;;1.40;99.90;;;0.10;100.00;99940.03;5067289;28;20536;-68
2022/01/13 10:01:28;;;;;;;505.58;43.78;;;1.50;99.90;;;-0.06;100.00;99941.16;5064260;28;20044;-68
2022/01/13 10:03:56;;;;;;;327.65;36.22;;;1.50;99.90;;;-0.06;100.00;99944.56;5068059;28;20053;-68
2022/01/13 10:06:23;;;;;;;570.35;49.05;;;1.50;99.90;;;-0.09;100.00;99953.78;5064445;28;20445;-68
2022/01/13 10:08:57;;;;;;;572.88;45.92;;;1.50;99.90;;;-0.15;100.00;99951.00;5065747;28;20605;-67
2022/01/13 10:11:23;;;;;;;;;;;1.50;99.90;;;-0.23;100.00;99945.59;5063358;28;20519;-68
2022/01/13 10:17:06;;;;;;;391.45;40.50;;;1.20;99.90;;;-0.31;100.00;99929.13;5061581;28;20079;-68
2022/01/13 10:19:39;;;;;;;541.28;43.85;;;1.30;99.90;;;-0.27;100.00;99934.41;5061420;28;20052;-67
2022/01/13 10:22:08;;;;;;;360.88;34.55;;;1.30;99.90;;;-0.11;100.00;99935.00;5064050;28;20128;-67
2022/01/13 10:24:38;;;;;;;724.75;48.65;;;1.20;99.90;;;-0.48;100.00;99948.88;5068902;28;20068;-67
2022/01/13 10:27:09;;;;;;;394.60;35.75;;;1.30;99.90;;;-0.29;100.00;99951.34;5068891;28;20135;-67
2022/01/13 10:29:58;;;;;;;448.60;35.63;;;1.30;99.90;;;-0.06;100.00;99948.81;5063483;28;20131;-67
2022/01/13 10:32:36;;;;;;;597.83;44.65;;;1.30;99.90;;;-0.11;100.00;99946.09;5068509;28;20487;-68